Time;durP1;ratioP1;P1;durP2;ratioP2;P2;SDS_P1;SDS_P2;PMS_P1;PMS_P2;Temp;Humidity;BMP_temperature;BMP_pressure;BME280_temperature;BME280_humidity;BME280_pressure;Samples;Min_cycle;Max_cycle;Signal;HPM_P1;HPM_P2
2023/07/14 00:01:51;;;;;;;5.97;4.88;;;18.60;96.00;;;;;;5018153;28;20042;-56
2023/07/14 00:04:39;;;;;;;8.38;5.07;;;18.60;96.10;;;;;;5053003;28;20033;-58
2023/07/14 00:07:25;;;;;;;11.18;7.10;;;18.60;96.20;;;;;;5051771;28;20455;-51
2023/07/14 00:10:32;;;;;;;11.45;6.30;;;18.60;97.00;;;;;;5052608;28;20085;-55
2023/07/14 00:13:18;;;;;;;13.02;6.47;;;18.90;97.20;;;;;;5038080;28;20434;-54
2023/07/14 00:16:12;;;;;;;11.55;6.25;;;19.00;96.90;;;;;;5038427;28;20048;-52
2023/07/14 00:18:58;;;;;;;12.05;5.85;;;19.10;96.50;;;;;;5053348;28;20032;-51
2023/07/14 00:21:45;;;;;;;7.55;4.68;;;19.30;96.40;;;;;;5052384;28;20041;-51
2023/07/14 00:24:32;;;;;;;5.32;4.65;;;19.40;95.40;;;;;;5052115;28;20029;-51
2023/07/14 00:27:21;;;;;;;8.95;4.85;;;19.50;95.40;;;;;;5050705;28;20040;-54
2023/07/14 00:30:18;;;;;;;10.13;5.32;;;19.50;94.70;;;;;;5052232;28;20025;-55
2023/07/14 00:33:11;;;;;;;6.82;4.32;;;19.60;93.90;;;;;;5052539;28;20028;-55
2023/07/14 00:35:57;;;;;;;6.93;5.13;;;19.60;94.10;;;;;;5046668;28;20028;-57
2023/07/14 00:38:44;;;;;;;8.10;5.15;;;19.70;94.00;;;;;;5044482;28;20033;-57
2023/07/14 00:41:30;;;;;;;5.85;4.28;;;19.70;93.70;;;;;;5052104;28;20029;-56
2023/07/14 00:44:17;;;;;;;5.13;4.25;;;19.70;93.50;;;;;;5052536;28;20029;-52
2023/07/14 00:47:16;;;;;;;5.90;4.13;;;19.70;93.60;;;;;;5050779;28;20034;-56
2023/07/14 00:50:02;;;;;;;5.75;4.30;;;19.70;93.60;;;;;;5013295;28;20029;-57
2023/07/14 00:52:48;;;;;;;7.78;4.80;;;19.70;93.20;;;;;;5026079;28;20021;-55
2023/07/14 00:55:40;;;;;;;5.97;4.43;;;19.60;93.40;;;;;;5051981;28;20532;-54
2023/07/14 00:58:29;;;;;;;7.57;4.50;;;19.50;93.60;;;;;;5053377;28;20028;-54
2023/07/14 01:01:25;;;;;;;6.68;4.47;;;19.30;94.40;;;;;;5041703;28;20402;-55
2023/07/14 01:04:11;;;;;;;6.70;4.47;;;19.20;94.40;;;;;;5031829;28;20473;-57
2023/07/14 01:06:57;;;;;;;7.80;4.70;;;19.10;94.50;;;;;;5031811;28;20040;-58
2023/07/14 01:09:44;;;;;;;6.72;4.50;;;19.10;94.40;;;;;;5030744;28;20026;-57
2023/07/14 01:12:33;;;;;;;6.53;4.85;;;19.00;94.80;;;;;;5031270;28;20026;-55
2023/07/14 01:15:19;;;;;;;6.68;4.20;;;19.00;94.60;;;;;;5030781;28;20405;-56
2023/07/14 01:18:07;;;;;;;6.07;4.55;;;18.90;94.60;;;;;;5030035;28;20501;-57
2023/07/14 01:20:53;;;;;;;5.55;4.50;;;18.90;94.50;;;;;;5030359;28;20026;-57
2023/07/14 01:24:12;;;;;;;7.07;4.53;;;18.90;95.30;;;;;;5031726;28;20109;-56
2023/07/14 01:27:07;;;;;;;6.50;4.22;;;19.00;94.80;;;;;;5030036;28;20025;-57
2023/07/14 01:29:53;;;;;;;6.57;4.88;;;19.00;94.60;;;;;;5030539;28;20104;-57
2023/07/14 01:32:45;;;;;;;5.88;4.40;;;18.90;94.90;;;;;;5029297;28;20043;-54
2023/07/14 01:35:35;;;;;;;6.07;4.53;;;18.80;94.40;;;;;;5030840;28;20033;-56
2023/07/14 01:38:22;;;;;;;6.40;4.30;;;18.80;94.80;;;;;;5025769;28;20033;-54
2023/07/14 01:41:08;;;;;;;6.13;4.40;;;18.70;94.80;;;;;;5031828;28;20029;-55
2023/07/14 01:43:57;;;;;;;5.22;4.20;;;18.70;95.00;;;;;;5032786;28;20033;-53
2023/07/14 01:46:45;;;;;;;5.95;4.72;;;18.60;94.70;;;;;;5038622;28;20037;-56
2023/07/14 01:49:41;;;;;;;7.95;5.00;;;18.60;94.70;;;;;;5038004;28;20022;-52
2023/07/14 01:52:37;;;;;;;7.63;5.43;;;18.50;94.20;;;;;;5031946;28;20025;-54
2023/07/14 01:55:25;;;;;;;6.28;5.07;;;18.40;94.50;;;;;;5029618;28;20056;-52
2023/07/14 01:58:20;;;;;;;5.70;4.43;;;18.30;94.60;;;;;;5031025;28;20108;-56
2023/07/14 02:01:10;;;;;;;7.50;4.93;;;18.20;94.80;;;;;;5029426;28;20374;-53
2023/07/14 02:03:57;;;;;;;9.45;5.10;;;18.10;95.00;;;;;;5031546;28;20026;-53
2023/07/14 02:06:43;;;;;;;6.50;4.07;;;18.10;95.10;;;;;;5030077;28;20025;-51
2023/07/14 02:09:31;;;;;;;6.30;4.47;;;18.10;95.40;;;;;;5030046;28;20057;-52
2023/07/14 02:12:36;;;;;;;5.45;4.30;;;18.10;95.30;;;;;;5037966;28;20053;-51
2023/07/14 02:15:31;;;;;;;5.72;5.05;;;18.10;95.50;;;;;;5035192;28;20021;-52
2023/07/14 02:18:22;;;;;;;6.03;4.88;;;18.10;95.60;;;;;;5034413;28;20025;-55
2023/07/14 02:21:10;;;;;;;6.28;5.00;;;18.10;95.80;;;;;;5031818;28;20041;-52
2023/07/14 02:23:59;;;;;;;6.55;4.53;;;18.00;95.70;;;;;;5035674;28;20026;-53
2023/07/14 02:27:05;;;;;;;5.85;4.80;;;18.00;96.20;;;;;;5034493;28;20114;-53
2023/07/14 02:29:51;;;;;;;5.68;4.60;;;18.00;96.20;;;;;;5047845;28;20029;-54
2023/07/14 02:32:44;;;;;;;6.07;4.60;;;18.10;96.20;;;;;;5026230;28;20106;-50
2023/07/14 02:35:40;;;;;;;7.90;4.78;;;18.20;96.40;;;;;;5033403;28;20057;-50
2023/07/14 02:38:26;;;;;;;5.93;4.65;;;18.20;96.00;;;;;;5035284;28;20021;-55
2023/07/14 02:41:15;;;;;;;5.85;4.45;;;18.20;96.20;;;;;;5035955;28;20029;-55
2023/07/14 02:44:04;;;;;;;5.90;4.50;;;18.20;95.90;;;;;;5041483;28;20026;-51
2023/07/14 02:46:53;;;;;;;6.18;4.50;;;18.20;95.90;;;;;;5049031;28;20068;-50
2023/07/14 02:49:40;;;;;;;6.97;4.68;;;18.20;95.70;;;;;;5035564;28;20033;-50
2023/07/14 02:52:25;;;;;;;4.50;4.10;;;18.30;95.10;;;;;;5035044;28;20113;-51
2023/07/14 02:55:11;;;;;;;4.95;4.38;;;18.10;95.30;;;;;;5036006;28;20029;-51
2023/07/14 02:57:57;;;;;;;5.25;4.20;;;18.10;94.80;;;;;;5035222;28;20029;-51
2023/07/14 03:00:44;;;;;;;8.70;4.50;;;18.00;95.00;;;;;;5036590;28;20409;-52
2023/07/14 03:03:33;;;;;;;6.22;5.05;;;18.00;95.20;;;;;;5035102;28;20111;-53
2023/07/14 03:06:20;;;;;;;6.32;4.38;;;18.00;95.20;;;;;;5035163;28;20030;-53
2023/07/14 03:09:07;;;;;;;5.40;4.43;;;18.00;95.00;;;;;;5035107;28;20022;-51
2023/07/14 03:11:53;;;;;;;6.30;4.68;;;18.00;95.30;;;;;;5035054;28;20036;-54
2023/07/14 03:14:39;;;;;;;7.13;4.47;;;18.10;95.00;;;;;;5034958;28;20412;-52
2023/07/14 03:17:25;;;;;;;6.85;4.50;;;18.20;94.90;;;;;;5034596;28;20051;-50
2023/07/14 03:20:11;;;;;;;9.68;6.70;;;18.20;94.80;;;;;;5035152;28;20057;-50
2023/07/14 03:22:57;;;;;;;6.30;5.30;;;18.10;95.40;;;;;;5033878;28;20026;-50
2023/07/14 03:25:43;;;;;;;5.18;4.55;;;18.00;95.00;;;;;;5035762;28;20061;-50
2023/07/14 03:28:29;;;;;;;6.50;4.38;;;18.00;95.40;;;;;;5041724;28;20033;-50
2023/07/14 03:31:15;;;;;;;5.50;4.43;;;18.00;95.40;;;;;;5053504;28;20025;-53
2023/07/14 03:34:01;;;;;;;6.30;4.60;;;18.10;95.00;;;;;;5053151;28;20025;-50
2023/07/14 03:36:47;;;;;;;6.47;4.40;;;18.00;95.40;;;;;;5053379;28;20029;-51
2023/07/14 03:39:33;;;;;;;6.88;5.25;;;18.00;95.60;;;;;;5054144;28;20037;-51
2023/07/14 03:42:19;;;;;;;10.13;6.78;;;18.00;95.50;;;;;;5053767;28;20025;-53
2023/07/14 03:45:06;;;;;;;6.70;5.53;;;18.00;95.20;;;;;;5051943;28;20029;-51
2023/07/14 03:47:52;;;;;;;7.40;6.70;;;18.10;95.50;;;;;;5054251;28;20079;-52
2023/07/14 03:50:38;;;;;;;6.03;5.20;;;18.20;95.10;;;;;;5052812;28;20083;-52
2023/07/14 03:53:24;;;;;;;15.80;12.75;;;18.20;95.30;;;;;;5052570;28;20029;-50
2023/07/14 03:56:10;;;;;;;5.57;4.97;;;18.30;95.10;;;;;;5047125;28;20034;-51
2023/07/14 03:58:56;;;;;;;7.82;5.35;;;18.20;94.90;;;;;;5034326;28;20026;-50
2023/07/14 04:01:42;;;;;;;6.38;5.38;;;18.20;94.60;;;;;;5033757;28;20080;-52
2023/07/14 04:04:29;;;;;;;6.85;5.00;;;18.30;95.50;;;;;;5034524;28;20033;-50
2023/07/14 04:07:15;;;;;;;7.53;4.72;;;18.30;94.60;;;;;;5060794;28;20107;-50
2023/07/14 04:10:02;;;;;;;6.57;4.80;;;18.30;94.80;;;;;;5033776;28;20029;-50
2023/07/14 04:12:49;;;;;;;8.18;5.05;;;18.30;94.40;;;;;;5015984;28;20040;-52
2023/07/14 04:15:35;;;;;;;5.78;4.97;;;18.20;94.70;;;;;;5015700;28;20030;-53
2023/07/14 04:18:21;;;;;;;7.50;4.95;;;18.20;94.80;;;;;;5024386;28;20028;-51
2023/07/14 04:21:10;;;;;;;6.18;4.78;;;18.10;94.90;;;;;;5054889;28;20079;-53
2023/07/14 04:23:56;;;;;;;6.82;4.60;;;18.20;95.00;;;;;;5044565;28;20041;-51
2023/07/14 04:26:42;;;;;;;4.95;4.13;;;18.30;95.10;;;;;;5038922;28;20450;-52
2023/07/14 04:29:28;;;;;;;4.95;4.28;;;18.20;95.40;;;;;;5040484;28;20033;-51
2023/07/14 04:32:14;;;;;;;6.90;4.72;;;18.30;95.50;;;;;;5038180;28;20113;-50
2023/07/14 04:35:00;;;;;;;6.55;4.80;;;18.40;94.80;;;;;;5039658;28;20036;-51
2023/07/14 04:37:46;;;;;;;10.63;8.77;;;18.50;94.70;;;;;;5039170;28;20029;-49
2023/07/14 04:40:32;;;;;;;6.68;5.78;;;18.50;94.40;;;;;;5054942;28;20028;-51
2023/07/14 04:43:18;;;;;;;7.10;4.65;;;18.60;94.50;;;;;;5056350;28;20493;-49
2023/07/14 04:46:04;;;;;;;5.10;4.60;;;18.70;94.10;;;;;;5053584;28;20025;-49
2023/07/14 04:48:50;;;;;;;6.47;4.70;;;18.70;94.60;;;;;;5052631;28;20053;-50
2023/07/14 04:51:37;;;;;;;9.27;5.13;;;18.70;94.40;;;;;;5041754;28;20045;-54
2023/07/14 04:54:23;;;;;;;6.00;4.70;;;18.70;94.30;;;;;;5033748;28;20083;-54
2023/07/14 04:57:09;;;;;;;7.60;4.57;;;18.50;94.80;;;;;;5033335;28;20586;-56
2023/07/14 04:59:58;;;;;;;5.90;4.40;;;18.50;94.50;;;;;;5034375;28;20175;-54
2023/07/14 05:02:44;;;;;;;6.43;4.45;;;18.40;95.10;;;;;;5013495;28;20116;-55
2023/07/14 05:05:30;;;;;;;5.15;4.22;;;18.30;95.00;;;;;;5014135;28;20112;-52
2023/07/14 05:08:16;;;;;;;6.90;4.63;;;18.40;95.30;;;;;;5017650;28;20048;-51
2023/07/14 05:11:03;;;;;;;5.82;4.45;;;18.50;95.10;;;;;;5033933;28;20034;-52
2023/07/14 05:13:51;;;;;;;7.32;4.50;;;18.40;95.00;;;;;;5033030;28;20041;-54
2023/07/14 05:16:38;;;;;;;5.55;4.78;;;18.60;94.90;;;;;;5032909;28;20414;-53
2023/07/14 05:19:24;;;;;;;8.30;4.63;;;18.60;94.60;;;;;;5044202;28;20032;-53
2023/07/14 05:22:10;;;;;;;6.85;4.60;;;18.60;95.00;;;;;;5051763;28;20044;-56
2023/07/14 05:24:56;;;;;;;6.20;4.63;;;18.60;94.40;;;;;;5051745;28;20053;-49
2023/07/14 05:27:44;;;;;;;6.28;4.35;;;18.60;94.70;;;;;;5052095;28;20516;-50
2023/07/14 05:30:30;;;;;;;7.90;4.57;;;18.80;94.40;;;;;;5051507;28;20576;-49
2023/07/14 05:33:16;;;;;;;10.02;4.60;;;19.00;94.50;;;;;;5050336;28;20023;-52
2023/07/14 05:36:02;;;;;;;5.72;4.57;;;18.90;94.40;;;;;;5051879;28;20040;-53
2023/07/14 05:38:48;;;;;;;8.00;4.45;;;18.90;93.70;;;;;;5051435;28;20406;-53
2023/07/14 05:41:34;;;;;;;8.05;4.60;;;19.00;93.70;;;;;;5051803;28;20521;-53
2023/07/14 05:44:20;;;;;;;6.72;4.22;;;19.00;93.40;;;;;;5051282;28;20028;-54
2023/07/14 05:47:06;;;;;;;7.47;4.43;;;18.90;93.40;;;;;;5038089;28;20040;-56
2023/07/14 05:49:52;;;;;;;5.10;4.22;;;19.10;93.50;;;;;;5032638;28;20026;-57
2023/07/14 05:52:38;;;;;;;6.63;4.65;;;19.20;93.60;;;;;;5031861;28;20029;-53
2023/07/14 05:55:24;;;;;;;6.13;4.25;;;19.30;93.30;;;;;;5032584;28;20052;-53
2023/07/14 05:58:10;;;;;;;6.65;4.82;;;19.30;93.20;;;;;;5032279;28;20037;-56
2023/07/14 06:00:56;;;;;;;6.57;4.97;;;19.50;92.90;;;;;;5032385;28;20037;-56
2023/07/14 06:03:42;;;;;;;7.05;4.63;;;19.50;92.90;;;;;;5032576;28;20505;-56
2023/07/14 06:06:28;;;;;;;5.78;4.35;;;19.50;92.90;;;;;;5032458;28;20057;-55
2023/07/14 06:09:14;;;;;;;5.55;4.28;;;19.50;93.10;;;;;;5033461;28;20017;-56
2023/07/14 06:12:04;;;;;;;5.88;4.57;;;19.50;93.50;;;;;;5032628;28;20148;-56
2023/07/14 06:14:50;;;;;;;7.15;4.65;;;19.60;93.40;;;;;;5046022;28;20033;-56
2023/07/14 06:17:37;;;;;;;6.50;4.90;;;19.70;93.00;;;;;;5050887;28;20378;-53
2023/07/14 06:20:23;;;;;;;6.30;4.50;;;19.90;93.10;;;;;;5051256;28;20028;-56
2023/07/14 06:23:09;;;;;;;5.90;4.30;;;20.00;92.70;;;;;;5051331;28;20025;-53
2023/07/14 06:25:57;;;;;;;6.90;4.65;;;19.80;92.70;;;;;;5050145;28;20033;-54
2023/07/14 06:28:43;;;;;;;6.78;4.40;;;19.90;92.30;;;;;;5052037;28;20546;-56
2023/07/14 06:31:33;;;;;;;6.63;4.28;;;20.00;91.80;;;;;;5040840;28;20053;-56
2023/07/14 06:34:19;;;;;;;6.07;4.57;;;20.00;92.20;;;;;;5032232;28;20025;-53
2023/07/14 06:37:06;;;;;;;8.73;4.78;;;20.20;91.90;;;;;;5031973;28;20157;-55
2023/07/14 06:39:53;;;;;;;5.40;4.18;;;20.10;91.50;;;;;;5032093;28;20065;-52
2023/07/14 06:42:39;;;;;;;6.03;4.13;;;20.10;91.80;;;;;;5046627;28;20041;-55
2023/07/14 06:45:25;;;;;;;6.85;4.82;;;20.10;91.30;;;;;;5050750;28;20025;-54
2023/07/14 06:48:11;;;;;;;8.85;4.35;;;20.10;91.80;;;;;;5050177;28;20036;-52
2023/07/14 06:50:57;;;;;;;7.03;4.78;;;20.20;91.60;;;;;;5049759;28;20112;-56
2023/07/14 06:53:43;;;;;;;8.10;4.78;;;20.30;91.30;;;;;;5049824;28;20029;-56
2023/07/14 06:56:29;;;;;;;6.90;4.10;;;20.30;91.20;;;;;;5049999;28;20033;-53
2023/07/14 06:59:15;;;;;;;7.20;4.28;;;20.40;91.50;;;;;;5054448;28;20041;-53
2023/07/14 07:02:01;;;;;;;6.47;4.07;;;20.50;91.20;;;;;;5036249;28;20083;-54
2023/07/14 07:04:47;;;;;;;7.45;4.22;;;20.60;90.80;;;;;;5035094;28;20033;-54
2023/07/14 07:07:34;;;;;;;6.00;4.07;;;20.70;90.80;;;;;;5039804;28;20036;-52
2023/07/14 07:10:20;;;;;;;5.18;4.25;;;20.90;90.60;;;;;;5055533;28;20032;-53
2023/07/14 07:13:06;;;;;;;9.32;4.53;;;21.00;90.50;;;;;;5060402;28;20050;-56
2023/07/14 07:15:52;;;;;;;6.53;4.45;;;21.10;90.30;;;;;;5062287;28;20029;-54
2023/07/14 07:18:38;;;;;;;8.13;4.40;;;21.30;90.00;;;;;;5061613;28;20060;-54
2023/07/14 07:21:24;;;;;;;6.97;4.88;;;21.10;89.70;;;;;;5045007;28;20140;-54
2023/07/14 07:24:10;;;;;;;4.82;4.00;;;21.00;89.60;;;;;;5031846;28;20108;-54
2023/07/14 07:26:56;;;;;;;5.57;3.75;;;21.10;89.00;;;;;;5027774;28;20406;-63
2023/07/14 07:29:42;;;;;;;5.38;3.95;;;21.10;88.90;;;;;;5015063;28;20022;-55
2023/07/14 07:32:28;;;;;;;7.10;3.67;;;21.30;87.90;;;;;;5032290;28;20025;-56
2023/07/14 07:35:14;;;;;;;5.90;3.70;;;21.30;87.70;;;;;;5038782;28;20021;-55
2023/07/14 07:38:02;;;;;;;5.95;3.75;;;21.40;87.00;;;;;;5049415;28;20022;-57
2023/07/14 07:40:48;;;;;;;5.22;3.90;;;21.40;86.70;;;;;;5033431;28;20026;-56
2023/07/14 07:43:34;;;;;;;6.65;3.80;;;21.60;85.60;;;;;;5035992;28;20079;-55
2023/07/14 07:46:21;;;;;;;6.18;3.90;;;21.70;85.30;;;;;;5029968;28;20117;-55
2023/07/14 07:49:07;;;;;;;9.35;4.20;;;21.90;85.40;;;;;;5032414;28;20413;-54
2023/07/14 07:51:53;;;;;;;5.47;3.50;;;22.00;84.40;;;;;;5033630;28;20032;-55
2023/07/14 07:54:39;;;;;;;5.25;3.30;;;22.00;83.40;;;;;;5032758;28;20462;-57
2023/07/14 07:57:25;;;;;;;4.85;3.35;;;22.00;83.50;;;;;;5034135;28;20388;-57
2023/07/14 08:00:12;;;;;;;7.80;4.43;;;22.10;83.30;;;;;;5032090;28;20030;-59
2023/07/14 08:02:58;;;;;;;5.68;3.85;;;22.20;83.40;;;;;;5036442;28;20029;-56
2023/07/14 08:05:44;;;;;;;8.95;4.30;;;22.30;82.30;;;;;;5031405;28;20021;-55
2023/07/14 08:08:30;;;;;;;5.13;3.60;;;22.40;81.70;;;;;;5030885;28;20022;-57
2023/07/14 08:11:16;;;;;;;6.15;3.60;;;22.50;81.80;;;;;;5027910;28;20021;-58
2023/07/14 08:14:03;;;;;;;6.03;3.60;;;22.30;80.70;;;;;;5030089;28;20120;-58
2023/07/14 08:16:49;;;;;;;5.22;3.47;;;22.40;80.90;;;;;;5031707;28;20037;-57
2023/07/14 08:19:35;;;;;;;5.60;3.70;;;22.50;81.00;;;;;;5034010;28;20025;-59
2023/07/14 08:22:22;;;;;;;6.72;3.83;;;22.50;79.70;;;;;;5032854;28;20179;-57
2023/07/14 08:25:09;;;;;;;4.53;3.55;;;22.40;80.80;;;;;;5033406;28;20452;-58
2023/07/14 08:27:55;;;;;;;4.90;3.40;;;22.50;80.10;;;;;;5034393;28;20509;-58
2023/07/14 08:30:40;;;;;;;7.63;3.50;;;22.50;79.70;;;;;;5033054;28;20092;-56
2023/07/14 08:33:27;;;;;;;5.50;3.17;;;22.70;79.10;;;;;;5031238;28;20021;-57
2023/07/14 08:36:13;;;;;;;4.60;3.50;;;22.50;77.50;;;;;;5028323;28;20021;-58
2023/07/14 08:39:00;;;;;;;5.80;3.45;;;22.60;78.90;;;;;;5030145;28;20033;-57
2023/07/14 08:41:56;;;;;;;6.95;3.33;;;22.50;77.80;;;;;;5032338;28;20098;-56
2023/07/14 08:44:55;;;;;;;4.93;3.33;;;22.50;76.90;;;;;;5032762;28;20449;-55
2023/07/14 08:48:07;;;;;;;5.63;3.20;;;22.50;77.90;;;;;;5031111;28;20034;-59
2023/07/14 08:50:56;;;;;;;7.43;3.13;;;22.60;77.40;;;;;;5023015;28;20449;-58
2023/07/14 08:53:47;;;;;;;8.90;3.30;;;22.80;77.70;;;;;;5030991;28;20096;-57
2023/07/14 08:56:36;;;;;;;6.38;3.10;;;23.00;76.80;;;;;;5027162;28;20036;-57
2023/07/14 08:59:39;;;;;;;6.53;3.30;;;23.20;76.20;;;;;;5030352;28;20029;-57
2023/07/14 09:02:31;;;;;;;5.40;3.42;;;23.00;76.20;;;;;;5030491;28;20052;-58
2023/07/14 09:05:24;;;;;;;7.03;3.20;;;23.20;76.50;;;;;;5030706;28;20490;-57
2023/07/14 09:08:11;;;;;;;4.35;3.13;;;23.40;75.40;;;;;;5031460;28;20022;-57
2023/07/14 09:11:23;;;;;;;5.30;3.40;;;23.50;75.90;;;;;;5030365;28;20101;-56
2023/07/14 09:14:28;;;;;;;4.45;3.33;;;23.80;75.10;;;;;;5032516;28;20064;-57
2023/07/14 09:17:22;;;;;;;5.65;3.40;;;24.10;74.40;;;;;;5023329;28;20514;-55
2023/07/14 09:20:28;;;;;;;5.15;3.40;;;23.90;74.20;;;;;;5035022;28;20040;-59
2023/07/14 09:23:38;;;;;;;6.03;3.15;;;23.70;74.80;;;;;;5030566;28;20028;-58
2023/07/14 09:26:29;;;;;;;5.25;3.15;;;24.00;74.00;;;;;;5033642;28;20116;-59
2023/07/14 09:29:19;;;;;;;5.78;3.50;;;24.00;73.10;;;;;;5029944;28;20029;-57
2023/07/14 09:32:32;;;;;;;6.18;3.42;;;24.10;73.00;;;;;;5028474;28;20405;-56
2023/07/14 09:35:20;;;;;;;5.25;3.25;;;24.10;72.80;;;;;;5032524;28;20025;-57
2023/07/14 09:38:34;;;;;;;9.82;3.67;;;24.30;72.30;;;;;;5028426;28;20017;-57
2023/07/14 09:41:24;;;;;;;6.68;3.50;;;24.40;71.80;;;;;;5033217;28;20029;-58
2023/07/14 09:44:10;;;;;;;8.13;3.80;;;24.50;71.40;;;;;;5033948;28;20025;-58
2023/07/14 09:46:58;;;;;;;6.28;3.70;;;24.60;71.50;;;;;;5048833;28;20033;-58
2023/07/14 09:49:57;;;;;;;4.28;3.28;;;24.60;72.00;;;;;;5051195;28;20032;-57
2023/07/14 09:52:53;;;;;;;4.30;3.60;;;24.80;71.00;;;;;;5032030;28;20071;-58
2023/07/14 09:55:55;;;;;;;5.60;3.70;;;25.00;70.20;;;;;;5031980;28;20266;-55
2023/07/14 09:58:52;;;;;;;6.07;4.18;;;25.20;70.50;;;;;;5035759;28;20129;-59
2023/07/14 10:01:52;;;;;;;6.82;3.83;;;25.40;69.60;;;;;;5032209;28;20150;-59
2023/07/14 10:04:39;;;;;;;5.93;3.90;;;25.50;68.10;;;;;;5033371;28;20033;-59
2023/07/14 10:07:24;;;;;;;5.05;3.50;;;25.40;69.60;;;;;;5031114;28;20056;-59
2023/07/14 10:10:14;;;;;;;4.22;3.75;;;25.00;68.00;;;;;;5033337;28;20029;-59
2023/07/14 10:13:17;;;;;;;7.65;3.80;;;25.00;69.20;;;;;;5033376;28;20072;-57
2023/07/14 10:16:14;;;;;;;6.15;3.83;;;25.20;69.40;;;;;;5030374;28;20394;-57
2023/07/14 10:19:11;;;;;;;6.43;3.85;;;25.40;69.00;;;;;;5031452;28;20041;-58
2023/07/14 10:22:04;;;;;;;8.43;3.90;;;25.40;69.30;;;;;;5029486;28;20394;-57
2023/07/14 10:24:59;;;;;;;5.00;3.63;;;25.40;68.40;;;;;;5030766;28;20033;-58
2023/07/14 10:28:11;;;;;;;7.55;3.80;;;25.40;68.90;;;;;;5030257;28;20033;-58
2023/07/14 10:31:02;;;;;;;6.38;4.13;;;25.30;68.60;;;;;;5028664;28;20379;-57
2023/07/14 10:34:10;;;;;;;6.03;3.40;;;25.00;68.20;;;;;;5033162;28;20101;-57
2023/07/14 10:37:00;;;;;;;5.85;3.88;;;25.20;68.60;;;;;;5032744;28;20103;-57
2023/07/14 10:39:52;;;;;;;5.07;3.97;;;25.20;67.20;;;;;;5033535;28;20044;-58
2023/07/14 10:42:47;;;;;;;6.65;3.67;;;25.40;67.20;;;;;;5032908;28;20034;-58
2023/07/14 10:45:34;;;;;;;5.43;3.75;;;25.30;68.30;;;;;;5035474;28;20021;-56
2023/07/14 10:48:29;;;;;;;7.13;4.22;;;25.40;67.50;;;;;;5032897;28;20026;-58
2023/07/14 10:51:34;;;;;;;6.57;3.88;;;25.20;67.90;;;;;;5032703;28;20084;-57
2023/07/14 10:54:33;;;;;;;6.07;4.18;;;25.10;68.30;;;;;;5033078;28;20037;-57
2023/07/14 10:57:44;;;;;;;6.88;4.13;;;25.20;68.70;;;;;;5031003;28;20040;-57
2023/07/14 11:00:43;;;;;;;7.05;5.53;;;25.60;69.00;;;;;;5034065;28;20033;-54
2023/07/14 11:03:40;;;;;;;6.05;5.22;;;25.80;67.90;;;;;;5033781;28;20043;-55
2023/07/14 11:06:29;;;;;;;6.18;4.28;;;26.00;67.50;;;;;;5019385;28;20574;-56
2023/07/14 11:09:15;;;;;;;6.65;3.97;;;26.10;66.50;;;;;;5035482;28;20033;-57
2023/07/14 11:12:30;;;;;;;8.40;4.57;;;25.90;66.40;;;;;;5034734;28;20060;-55
2023/07/14 11:15:29;;;;;;;8.52;6.00;;;25.90;67.20;;;;;;5034200;28;20025;-55
2023/07/14 11:18:45;;;;;;;9.23;3.95;;;26.20;66.20;;;;;;5038192;28;20049;-58
2023/07/14 11:21:40;;;;;;;9.32;4.60;;;26.40;66.20;;;;;;5037908;28;20038;-58
2023/07/14 11:24:48;;;;;;;5.75;4.00;;;26.40;66.10;;;;;;5035526;28;20116;-58
2023/07/14 11:27:43;;;;;;;4.72;4.07;;;26.40;65.40;;;;;;5035366;28;20037;-58
2023/07/14 11:30:39;;;;;;;7.47;3.97;;;26.40;66.40;;;;;;5035095;28;20021;-59
2023/07/14 11:33:49;;;;;;;5.05;3.85;;;26.30;66.00;;;;;;5035357;28;20399;-58
2023/07/14 11:36:57;;;;;;;7.35;4.03;;;26.10;66.20;;;;;;5033620;28;20037;-59
2023/07/14 11:39:49;;;;;;;6.32;3.78;;;26.00;66.20;;;;;;5034067;28;20022;-59
2023/07/14 11:42:36;;;;;;;6.50;4.05;;;26.00;66.40;;;;;;5034607;28;20033;-59
2023/07/14 11:45:26;;;;;;;5.47;3.78;;;26.40;66.50;;;;;;5033857;28;20132;-59
2023/07/14 11:48:25;;;;;;;6.70;4.05;;;26.50;65.40;;;;;;5034734;28;20026;-58
2023/07/14 11:51:17;;;;;;;8.48;4.28;;;26.70;64.60;;;;;;5035446;28;20096;-59
2023/07/14 11:54:16;;;;;;;6.97;4.28;;;26.40;65.40;;;;;;5034063;28;20112;-59
2023/07/14 11:57:05;;;;;;;7.78;4.28;;;26.30;65.80;;;;;;5032333;28;20030;-54
2023/07/14 11:59:59;;;;;;;5.97;4.22;;;26.10;65.20;;;;;;5033122;28;20052;-59
2023/07/14 12:02:56;;;;;;;5.63;4.32;;;26.00;66.40;;;;;;5030739;28;20025;-58
2023/07/14 12:05:43;;;;;;;6.45;4.45;;;26.30;64.40;;;;;;5031972;28;20022;-59
2023/07/14 12:08:39;;;;;;;8.57;4.80;;;26.40;63.20;;;;;;5037464;28;20394;-59
2023/07/14 12:11:29;;;;;;;6.63;4.90;;;26.60;65.50;;;;;;5034896;28;20033;-59
2023/07/14 12:14:34;;;;;;;7.03;4.25;;;26.80;64.10;;;;;;5035669;28;20033;-59
2023/07/14 12:17:48;;;;;;;5.78;3.92;;;26.70;63.30;;;;;;5032810;28;20072;-58
2023/07/14 12:28:00;;;;;;;6.53;4.15;;;26.80;63.80;;;;;;5033764;28;20037;-56
2023/07/14 12:30:50;;;;;;;6.72;4.68;;;27.10;63.60;;;;;;5033093;28;20065;-58
2023/07/14 12:33:36;;;;;;;8.02;4.80;;;27.10;63.40;;;;;;5033515;28;20039;-58
2023/07/14 12:36:22;;;;;;;7.72;4.95;;;26.50;63.40;;;;;;5032710;28;20093;-58
2023/07/14 12:39:09;;;;;;;8.55;5.35;;;26.70;63.60;;;;;;5033013;28;20041;-57
2023/07/14 12:41:56;;;;;;;5.40;4.38;;;26.80;63.30;;;;;;5032416;28;20037;-54
2023/07/14 12:44:42;;;;;;;7.22;4.55;;;27.20;62.40;;;;;;5030117;28;20037;-56
2023/07/14 12:47:32;;;;;;;5.45;4.63;;;27.60;62.50;;;;;;5034714;28;20046;-58
2023/07/14 12:50:21;;;;;;;5.60;5.03;;;27.80;61.30;;;;;;5032182;28;20426;-51
2023/07/14 12:53:16;;;;;;;7.53;4.80;;;27.70;62.00;;;;;;5032136;28;20050;-57
2023/07/14 12:56:10;;;;;;;8.20;5.20;;;27.30;61.20;;;;;;5030275;28;20033;-62
2023/07/14 12:58:59;;;;;;;6.93;4.70;;;27.00;63.00;;;;;;5031383;28;20497;-60
2023/07/14 13:01:47;;;;;;;4.80;4.20;;;26.90;62.60;;;;;;5033240;28;20029;-59
2023/07/14 13:04:34;;;;;;;5.80;4.25;;;27.30;62.30;;;;;;5033253;28;20041;-59
2023/07/14 13:07:29;;;;;;;5.20;4.43;;;27.70;61.30;;;;;;5031696;28;20048;-54
2023/07/14 13:10:28;;;;;;;6.18;4.70;;;27.70;60.80;;;;;;5029315;28;20032;-56
2023/07/14 13:13:21;;;;;;;7.28;4.68;;;27.80;61.20;;;;;;5031020;28;20025;-54
2023/07/14 13:16:11;;;;;;;7.25;4.32;;;27.80;61.90;;;;;;5012284;28;20034;-57
2023/07/14 13:19:00;;;;;;;7.90;4.90;;;27.70;61.80;;;;;;5019216;28;20080;-54
2023/07/14 13:21:49;;;;;;;6.05;4.63;;;27.80;62.10;;;;;;5033152;28;20033;-58
2023/07/14 13:24:35;;;;;;;4.97;4.35;;;27.80;61.40;;;;;;5032964;28;20090;-58
2023/07/14 13:27:21;;;;;;;7.13;4.30;;;27.70;60.70;;;;;;5031945;28;20042;-58
2023/07/14 13:30:16;;;;;;;7.85;4.10;;;27.80;61.10;;;;;;5032197;28;20037;-53
2023/07/14 13:33:02;;;;;;;7.90;5.22;;;27.80;61.20;;;;;;5031897;28;20146;-57
2023/07/14 13:35:55;;;;;;;5.20;4.32;;;27.90;60.90;;;;;;5032321;28;20535;-55
2023/07/14 13:38:42;;;;;;;5.15;4.30;;;28.20;60.60;;;;;;5032658;28;20030;-54
2023/07/14 13:41:29;;;;;;;6.00;4.93;;;28.30;59.90;;;;;;5033187;28;20038;-57
2023/07/14 13:44:28;;;;;;;6.35;4.60;;;28.30;59.70;;;;;;5031751;28;20028;-57
2023/07/14 13:47:28;;;;;;;11.27;5.03;;;28.20;61.00;;;;;;5031686;28;20121;-57
2023/07/14 13:50:14;;;;;;;6.72;5.05;;;28.20;60.40;;;;;;5032224;28;20038;-56
2023/07/14 13:53:00;;;;;;;6.38;4.55;;;28.90;60.30;;;;;;5032986;28;20116;-59
2023/07/14 13:55:47;;;;;;;7.55;4.43;;;29.30;59.80;;;;;;5031214;28;20025;-56
2023/07/14 13:58:33;;;;;;;6.97;4.70;;;29.50;59.10;;;;;;5032095;28;20029;-58
2023/07/14 14:01:22;;;;;;;7.00;4.07;;;29.70;59.50;;;;;;5031812;28;20045;-56
2023/07/14 14:04:13;;;;;;;5.60;4.63;;;29.70;58.70;;;;;;5032467;28;20088;-56
2023/07/14 14:06:59;;;;;;;9.25;5.20;;;29.60;59.00;;;;;;5043556;28;20033;-57
2023/07/14 14:09:45;;;;;;;8.48;4.57;;;29.00;59.70;;;;;;5046051;28;20045;-56
2023/07/14 14:12:31;;;;;;;8.20;5.55;;;28.60;59.80;;;;;;5036811;28;20037;-58
2023/07/14 14:15:29;;;;;;;7.18;4.90;;;28.60;59.80;;;;;;5037959;28;20087;-57
2023/07/14 14:18:23;;;;;;;6.93;4.90;;;28.70;60.00;;;;;;5035345;28;20029;-57
2023/07/14 14:21:11;;;;;;;6.60;4.25;;;28.90;60.20;;;;;;5036241;28;20486;-57
2023/07/14 14:23:57;;;;;;;5.40;4.40;;;29.20;58.50;;;;;;5036228;28;20026;-56
2023/07/14 14:26:43;;;;;;;6.70;4.55;;;29.40;59.00;;;;;;5035021;28;20413;-57
2023/07/14 14:29:29;;;;;;;5.03;4.00;;;29.20;58.60;;;;;;5036274;28;20050;-57
2023/07/14 14:32:17;;;;;;;6.30;4.40;;;29.20;59.00;;;;;;5034848;28;20025;-58
2023/07/14 14:35:25;;;;;;;9.82;4.45;;;29.10;58.60;;;;;;5036751;28;20079;-57
2023/07/14 14:38:43;;;;;;;6.40;4.47;;;29.00;58.30;;;;;;5035631;28;20048;-57
2023/07/14 14:41:34;;;;;;;6.22;4.22;;;28.80;59.90;;;;;;5035378;28;20072;-58
2023/07/14 14:44:22;;;;;;;7.60;4.85;;;28.60;59.80;;;;;;5038299;28;20032;-56
2023/07/14 14:47:14;;;;;;;5.57;4.30;;;28.60;60.10;;;;;;5036689;28;20502;-53
2023/07/14 14:49:59;;;;;;;6.00;4.45;;;28.80;59.00;;;;;;5037844;28;20037;-56
2023/07/14 14:52:48;;;;;;;5.43;4.35;;;28.90;59.50;;;;;;5036028;28;20068;-56